sensor_id;sensor_type;location;lat;lon;timestamp;P1;durP1;ratioP1;P2;durP2;ratioP2
30036;SDS011;36325;51.512;-0.382;2023-05-10T00:01:10;13.68;;;5.72;;
30036;SDS011;36325;51.512;-0.382;2023-05-10T00:03:37;13.95;;;6.35;;
30036;SDS011;36325;51.512;-0.382;2023-05-10T00:06:04;17.58;;;7.05;;
30036;SDS011;36325;51.512;-0.382;2023-05-10T00:08:32;12.07;;;5.75;;
30036;SDS011;36325;51.512;-0.382;2023-05-10T00:10:59;15.15;;;5.85;;
30036;SDS011;36325;51.512;-0.382;2023-05-10T00:13:26;15.05;;;6.65;;
30036;SDS011;36325;51.512;-0.382;2023-05-10T00:15:54;16.05;;;7.38;;
30036;SDS011;36325;51.512;-0.382;2023-05-10T00:18:21;16.50;;;6.78;;
30036;SDS011;36325;51.512;-0.382;2023-05-10T00:20:48;12.80;;;6.85;;
30036;SDS011;36325;51.512;-0.382;2023-05-10T00:23:15;16.50;;;7.78;;
30036;SDS011;36325;51.512;-0.382;2023-05-10T00:25:43;21.25;;;7.68;;
30036;SDS011;36325;51.512;-0.382;2023-05-10T00:28:10;17.80;;;7.68;;
30036;SDS011;36325;51.512;-0.382;2023-05-10T00:30:37;16.55;;;7.85;;
30036;SDS011;36325;51.512;-0.382;2023-05-10T00:33:05;15.15;;;7.50;;
30036;SDS011;36325;51.512;-0.382;2023-05-10T00:35:32;24.10;;;8.23;;
30036;SDS011;36325;51.512;-0.382;2023-05-10T00:38:00;25.25;;;8.93;;
30036;SDS011;36325;51.512;-0.382;2023-05-10T00:40:27;22.23;;;8.27;;
30036;SDS011;36325;51.512;-0.382;2023-05-10T00:42:58;26.30;;;8.23;;
30036;SDS011;36325;51.512;-0.382;2023-05-10T00:45:26;21.48;;;8.38;;
30036;SDS011;36325;51.512;-0.382;2023-05-10T00:47:54;15.30;;;7.20;;
30036;SDS011;36325;51.512;-0.382;2023-05-10T00:50:22;17.52;;;7.13;;
30036;SDS011;36325;51.512;-0.382;2023-05-10T00:52:50;16.63;;;8.10;;
30036;SDS011;36325;51.512;-0.382;2023-05-10T00:55:18;14.73;;;7.50;;
30036;SDS011;36325;51.512;-0.382;2023-05-10T00:57:45;17.23;;;7.93;;
30036;SDS011;36325;51.512;-0.382;2023-05-10T01:00:13;18.25;;;7.95;;
30036;SDS011;36325;51.512;-0.382;2023-05-10T01:02:45;18.17;;;8.23;;
30036;SDS011;36325;51.512;-0.382;2023-05-10T01:05:13;20.25;;;8.07;;
30036;SDS011;36325;51.512;-0.382;2023-05-10T01:07:40;22.50;;;8.00;;
30036;SDS011;36325;51.512;-0.382;2023-05-10T01:10:08;20.40;;;7.57;;
30036;SDS011;36325;51.512;-0.382;2023-05-10T01:12:38;18.77;;;7.75;;
30036;SDS011;36325;51.512;-0.382;2023-05-10T01:15:07;19.35;;;7.35;;
30036;SDS011;36325;51.512;-0.382;2023-05-10T01:17:37;17.85;;;7.18;;
30036;SDS011;36325;51.512;-0.382;2023-05-10T01:20:07;19.80;;;6.95;;
30036;SDS011;36325;51.512;-0.382;2023-05-10T01:25:35;14.30;;;6.38;;
30036;SDS011;36325;51.512;-0.382;2023-05-10T01:34:23;15.90;;;6.57;;
30036;SDS011;36325;51.512;-0.382;2023-05-10T01:37:01;15.20;;;6.40;;
30036;SDS011;36325;51.512;-0.382;2023-05-10T01:39:36;14.70;;;6.83;;
30036;SDS011;36325;51.512;-0.382;2023-05-10T01:42:16;12.85;;;5.78;;
30036;SDS011;36325;51.512;-0.382;2023-05-10T01:44:56;14.10;;;5.95;;
30036;SDS011;36325;51.512;-0.382;2023-05-10T01:50:06;18.17;;;6.82;;
30036;SDS011;36325;51.512;-0.382;2023-05-10T01:52:42;22.13;;;6.32;;
30036;SDS011;36325;51.512;-0.382;2023-05-10T01:57:43;17.35;;;6.93;;
30036;SDS011;36325;51.512;-0.382;2023-05-10T02:00:13;20.38;;;6.85;;
30036;SDS011;36325;51.512;-0.382;2023-05-10T02:02:42;15.52;;;6.80;;
30036;SDS011;36325;51.512;-0.382;2023-05-10T02:05:13;16.75;;;7.22;;
30036;SDS011;36325;51.512;-0.382;2023-05-10T02:07:42;17.52;;;7.00;;
30036;SDS011;36325;51.512;-0.382;2023-05-10T02:10:11;19.45;;;8.02;;
30036;SDS011;36325;51.512;-0.382;2023-05-10T02:12:42;19.85;;;7.60;;
30036;SDS011;36325;51.512;-0.382;2023-05-10T02:15:12;18.88;;;8.02;;
30036;SDS011;36325;51.512;-0.382;2023-05-10T02:17:42;20.43;;;8.50;;
30036;SDS011;36325;51.512;-0.382;2023-05-10T02:20:12;18.27;;;7.57;;
30036;SDS011;36325;51.512;-0.382;2023-05-10T02:22:40;18.73;;;8.75;;
30036;SDS011;36325;51.512;-0.382;2023-05-10T02:25:09;18.65;;;7.97;;
30036;SDS011;36325;51.512;-0.382;2023-05-10T02:27:39;20.35;;;8.52;;
30036;SDS011;36325;51.512;-0.382;2023-05-10T02:30:09;20.02;;;8.18;;
30036;SDS011;36325;51.512;-0.382;2023-05-10T02:32:38;25.73;;;8.65;;
30036;SDS011;36325;51.512;-0.382;2023-05-10T02:35:07;21.83;;;8.95;;
30036;SDS011;36325;51.512;-0.382;2023-05-10T02:37:36;21.92;;;9.43;;
30036;SDS011;36325;51.512;-0.382;2023-05-10T02:40:05;25.45;;;10.40;;
30036;SDS011;36325;51.512;-0.382;2023-05-10T02:42:36;21.23;;;8.65;;
30036;SDS011;36325;51.512;-0.382;2023-05-10T02:45:07;35.53;;;10.48;;
30036;SDS011;36325;51.512;-0.382;2023-05-10T02:47:38;32.05;;;10.65;;
30036;SDS011;36325;51.512;-0.382;2023-05-10T02:50:06;22.10;;;9.40;;
30036;SDS011;36325;51.512;-0.382;2023-05-10T02:52:46;20.92;;;9.63;;
30036;SDS011;36325;51.512;-0.382;2023-05-10T02:55:16;17.65;;;9.10;;
30036;SDS011;36325;51.512;-0.382;2023-05-10T02:57:48;27.23;;;10.13;;
30036;SDS011;36325;51.512;-0.382;2023-05-10T03:00:20;20.70;;;9.52;;
30036;SDS011;36325;51.512;-0.382;2023-05-10T03:02:48;19.42;;;8.80;;
30036;SDS011;36325;51.512;-0.382;2023-05-10T03:05:15;21.35;;;8.52;;
30036;SDS011;36325;51.512;-0.382;2023-05-10T03:07:42;22.98;;;9.95;;
30036;SDS011;36325;51.512;-0.382;2023-05-10T03:10:10;23.48;;;9.23;;
30036;SDS011;36325;51.512;-0.382;2023-05-10T03:15:48;25.13;;;9.55;;
30036;SDS011;36325;51.512;-0.382;2023-05-10T03:21:14;23.77;;;9.38;;
30036;SDS011;36325;51.512;-0.382;2023-05-10T03:23:59;26.13;;;10.40;;
30036;SDS011;36325;51.512;-0.382;2023-05-10T03:26:31;20.27;;;8.90;;
30036;SDS011;36325;51.512;-0.382;2023-05-10T03:29:07;23.02;;;9.50;;
30036;SDS011;36325;51.512;-0.382;2023-05-10T03:31:38;27.95;;;9.13;;
30036;SDS011;36325;51.512;-0.382;2023-05-10T03:34:05;23.58;;;10.25;;
30036;SDS011;36325;51.512;-0.382;2023-05-10T03:36:33;23.25;;;9.18;;
30036;SDS011;36325;51.512;-0.382;2023-05-10T03:39:01;18.85;;;8.55;;
30036;SDS011;36325;51.512;-0.382;2023-05-10T03:41:29;20.35;;;8.02;;
30036;SDS011;36325;51.512;-0.382;2023-05-10T03:43:57;24.08;;;9.00;;
30036;SDS011;36325;51.512;-0.382;2023-05-10T03:46:24;22.83;;;9.75;;
30036;SDS011;36325;51.512;-0.382;2023-05-10T03:48:51;17.60;;;9.23;;
30036;SDS011;36325;51.512;-0.382;2023-05-10T03:51:19;21.13;;;9.27;;
30036;SDS011;36325;51.512;-0.382;2023-05-10T03:53:47;25.83;;;10.73;;
30036;SDS011;36325;51.512;-0.382;2023-05-10T03:56:15;23.88;;;9.65;;
30036;SDS011;36325;51.512;-0.382;2023-05-10T03:58:44;23.67;;;9.77;;
30036;SDS011;36325;51.512;-0.382;2023-05-10T04:01:11;20.92;;;7.90;;
30036;SDS011;36325;51.512;-0.382;2023-05-10T04:03:39;19.52;;;8.48;;
30036;SDS011;36325;51.512;-0.382;2023-05-10T04:06:07;25.38;;;9.20;;
30036;SDS011;36325;51.512;-0.382;2023-05-10T04:08:37;38.72;;;9.23;;
30036;SDS011;36325;51.512;-0.382;2023-05-10T04:11:06;21.13;;;9.23;;
30036;SDS011;36325;51.512;-0.382;2023-05-10T04:13:35;24.92;;;10.32;;
30036;SDS011;36325;51.512;-0.382;2023-05-10T04:16:03;31.60;;;10.45;;
30036;SDS011;36325;51.512;-0.382;2023-05-10T04:18:31;26.55;;;11.82;;
30036;SDS011;36325;51.512;-0.382;2023-05-10T04:20:58;33.88;;;13.13;;
30036;SDS011;36325;51.512;-0.382;2023-05-10T04:23:29;38.53;;;14.13;;
30036;SDS011;36325;51.512;-0.382;2023-05-10T04:26:00;41.05;;;17.75;;
30036;SDS011;36325;51.512;-0.382;2023-05-10T04:28:28;49.53;;;16.27;;
30036;SDS011;36325;51.512;-0.382;2023-05-10T04:31:02;41.47;;;15.40;;
30036;SDS011;36325;51.512;-0.382;2023-05-10T04:33:29;41.65;;;15.57;;
30036;SDS011;36325;51.512;-0.382;2023-05-10T04:35:57;46.22;;;15.77;;
30036;SDS011;36325;51.512;-0.382;2023-05-10T04:38:25;52.80;;;16.15;;
30036;SDS011;36325;51.512;-0.382;2023-05-10T04:40:53;44.58;;;17.00;;
30036;SDS011;36325;51.512;-0.382;2023-05-10T04:43:20;40.95;;;15.52;;
30036;SDS011;36325;51.512;-0.382;2023-05-10T04:45:48;39.42;;;15.27;;
30036;SDS011;36325;51.512;-0.382;2023-05-10T04:48:16;50.28;;;16.40;;
30036;SDS011;36325;51.512;-0.382;2023-05-10T04:50:44;48.70;;;17.25;;
30036;SDS011;36325;51.512;-0.382;2023-05-10T04:53:11;43.08;;;15.30;;
30036;SDS011;36325;51.512;-0.382;2023-05-10T04:55:41;44.03;;;15.48;;
30036;SDS011;36325;51.512;-0.382;2023-05-10T04:58:08;38.65;;;14.65;;
30036;SDS011;36325;51.512;-0.382;2023-05-10T05:00:36;49.88;;;16.75;;
30036;SDS011;36325;51.512;-0.382;2023-05-10T05:03:03;41.97;;;15.57;;
30036;SDS011;36325;51.512;-0.382;2023-05-10T05:05:31;34.92;;;13.52;;
30036;SDS011;36325;51.512;-0.382;2023-05-10T05:07:59;42.17;;;15.25;;
30036;SDS011;36325;51.512;-0.382;2023-05-10T05:10:26;33.75;;;12.50;;
30036;SDS011;36325;51.512;-0.382;2023-05-10T05:12:53;33.22;;;13.25;;
30036;SDS011;36325;51.512;-0.382;2023-05-10T05:15:20;29.63;;;13.32;;
30036;SDS011;36325;51.512;-0.382;2023-05-10T05:17:48;37.75;;;13.77;;
30036;SDS011;36325;51.512;-0.382;2023-05-10T05:20:15;37.75;;;14.27;;
30036;SDS011;36325;51.512;-0.382;2023-05-10T05:22:43;28.00;;;13.68;;
30036;SDS011;36325;51.512;-0.382;2023-05-10T05:25:10;36.83;;;13.23;;
30036;SDS011;36325;51.512;-0.382;2023-05-10T05:27:38;35.22;;;13.77;;
30036;SDS011;36325;51.512;-0.382;2023-05-10T05:30:06;39.67;;;14.35;;
30036;SDS011;36325;51.512;-0.382;2023-05-10T05:32:33;34.13;;;15.55;;
30036;SDS011;36325;51.512;-0.382;2023-05-10T05:35:01;37.58;;;15.18;;
30036;SDS011;36325;51.512;-0.382;2023-05-10T05:37:28;31.70;;;14.38;;
30036;SDS011;36325;51.512;-0.382;2023-05-10T05:39:55;33.33;;;14.32;;
30036;SDS011;36325;51.512;-0.382;2023-05-10T05:42:23;39.65;;;15.88;;
30036;SDS011;36325;51.512;-0.382;2023-05-10T05:44:50;36.05;;;13.98;;
30036;SDS011;36325;51.512;-0.382;2023-05-10T05:47:17;29.75;;;14.07;;
30036;SDS011;36325;51.512;-0.382;2023-05-10T05:49:44;26.63;;;10.93;;
30036;SDS011;36325;51.512;-0.382;2023-05-10T05:52:12;29.33;;;10.30;;
30036;SDS011;36325;51.512;-0.382;2023-05-10T05:54:39;24.63;;;9.60;;
30036;SDS011;36325;51.512;-0.382;2023-05-10T05:57:07;26.30;;;10.88;;
30036;SDS011;36325;51.512;-0.382;2023-05-10T05:59:34;28.95;;;9.52;;
30036;SDS011;36325;51.512;-0.382;2023-05-10T06:02:01;30.90;;;9.75;;
30036;SDS011;36325;51.512;-0.382;2023-05-10T06:04:29;27.67;;;9.85;;
30036;SDS011;36325;51.512;-0.382;2023-05-10T06:06:56;25.05;;;8.75;;
30036;SDS011;36325;51.512;-0.382;2023-05-10T06:09:24;22.33;;;8.70;;
30036;SDS011;36325;51.512;-0.382;2023-05-10T06:11:51;23.42;;;8.60;;
30036;SDS011;36325;51.512;-0.382;2023-05-10T06:14:20;19.27;;;7.88;;
30036;SDS011;36325;51.512;-0.382;2023-05-10T06:16:48;17.25;;;8.18;;
30036;SDS011;36325;51.512;-0.382;2023-05-10T06:19:15;14.25;;;6.85;;
30036;SDS011;36325;51.512;-0.382;2023-05-10T06:21:42;27.33;;;7.60;;
30036;SDS011;36325;51.512;-0.382;2023-05-10T06:24:09;21.98;;;7.82;;
30036;SDS011;36325;51.512;-0.382;2023-05-10T06:26:37;20.55;;;7.05;;
30036;SDS011;36325;51.512;-0.382;2023-05-10T06:29:04;24.27;;;6.55;;
30036;SDS011;36325;51.512;-0.382;2023-05-10T06:31:31;17.10;;;7.03;;
30036;SDS011;36325;51.512;-0.382;2023-05-10T06:33:58;17.23;;;7.05;;
30036;SDS011;36325;51.512;-0.382;2023-05-10T06:36:25;21.50;;;7.28;;
30036;SDS011;36325;51.512;-0.382;2023-05-10T06:38:56;18.55;;;6.68;;
30036;SDS011;36325;51.512;-0.382;2023-05-10T06:41:23;17.85;;;6.55;;
30036;SDS011;36325;51.512;-0.382;2023-05-10T06:43:50;18.55;;;7.20;;
30036;SDS011;36325;51.512;-0.382;2023-05-10T06:46:18;18.23;;;5.82;;
30036;SDS011;36325;51.512;-0.382;2023-05-10T06:48:45;19.45;;;6.63;;
30036;SDS011;36325;51.512;-0.382;2023-05-10T06:51:13;22.98;;;7.40;;
30036;SDS011;36325;51.512;-0.382;2023-05-10T06:53:40;24.98;;;6.05;;
30036;SDS011;36325;51.512;-0.382;2023-05-10T06:56:08;16.67;;;6.15;;
30036;SDS011;36325;51.512;-0.382;2023-05-10T06:58:35;23.08;;;6.80;;
30036;SDS011;36325;51.512;-0.382;2023-05-10T07:01:03;16.10;;;6.07;;
30036;SDS011;36325;51.512;-0.382;2023-05-10T07:03:31;18.55;;;5.90;;
30036;SDS011;36325;51.512;-0.382;2023-05-10T07:06:02;21.98;;;7.03;;
30036;SDS011;36325;51.512;-0.382;2023-05-10T07:08:30;20.98;;;6.80;;
30036;SDS011;36325;51.512;-0.382;2023-05-10T07:11:04;19.98;;;7.18;;
30036;SDS011;36325;51.512;-0.382;2023-05-10T07:13:36;25.67;;;8.55;;
30036;SDS011;36325;51.512;-0.382;2023-05-10T07:16:05;18.83;;;7.15;;
30036;SDS011;36325;51.512;-0.382;2023-05-10T07:18:34;25.25;;;7.90;;
30036;SDS011;36325;51.512;-0.382;2023-05-10T07:21:01;19.38;;;7.20;;
30036;SDS011;36325;51.512;-0.382;2023-05-10T07:23:29;24.00;;;9.30;;
30036;SDS011;36325;51.512;-0.382;2023-05-10T07:25:57;15.00;;;7.25;;
30036;SDS011;36325;51.512;-0.382;2023-05-10T07:28:24;16.38;;;8.10;;
30036;SDS011;36325;51.512;-0.382;2023-05-10T07:30:51;25.33;;;8.05;;
30036;SDS011;36325;51.512;-0.382;2023-05-10T07:33:19;20.63;;;7.63;;
30036;SDS011;36325;51.512;-0.382;2023-05-10T07:35:47;24.90;;;8.00;;
30036;SDS011;36325;51.512;-0.382;2023-05-10T07:38:14;26.10;;;7.75;;
30036;SDS011;36325;51.512;-0.382;2023-05-10T07:40:42;21.05;;;7.50;;
30036;SDS011;36325;51.512;-0.382;2023-05-10T07:43:09;21.13;;;7.07;;
30036;SDS011;36325;51.512;-0.382;2023-05-10T07:45:38;18.23;;;7.65;;
30036;SDS011;36325;51.512;-0.382;2023-05-10T07:48:05;25.02;;;6.70;;
30036;SDS011;36325;51.512;-0.382;2023-05-10T07:50:33;22.60;;;7.72;;
30036;SDS011;36325;51.512;-0.382;2023-05-10T07:53:00;18.23;;;6.63;;
30036;SDS011;36325;51.512;-0.382;2023-05-10T07:55:27;16.35;;;6.43;;
30036;SDS011;36325;51.512;-0.382;2023-05-10T07:57:55;20.40;;;6.75;;
30036;SDS011;36325;51.512;-0.382;2023-05-10T08:00:22;14.32;;;6.00;;
30036;SDS011;36325;51.512;-0.382;2023-05-10T08:02:49;16.80;;;6.03;;
30036;SDS011;36325;51.512;-0.382;2023-05-10T08:05:17;21.48;;;6.32;;
30036;SDS011;36325;51.512;-0.382;2023-05-10T08:07:44;20.40;;;7.15;;
30036;SDS011;36325;51.512;-0.382;2023-05-10T08:10:12;15.85;;;6.38;;
30036;SDS011;36325;51.512;-0.382;2023-05-10T08:12:39;19.63;;;6.13;;
30036;SDS011;36325;51.512;-0.382;2023-05-10T08:15:07;19.77;;;6.90;;
30036;SDS011;36325;51.512;-0.382;2023-05-10T08:17:35;19.33;;;6.68;;
30036;SDS011;36325;51.512;-0.382;2023-05-10T08:20:03;22.30;;;6.38;;
30036;SDS011;36325;51.512;-0.382;2023-05-10T08:22:31;18.20;;;6.25;;
30036;SDS011;36325;51.512;-0.382;2023-05-10T08:24:58;15.82;;;6.80;;
30036;SDS011;36325;51.512;-0.382;2023-05-10T08:27:27;17.25;;;6.38;;
30036;SDS011;36325;51.512;-0.382;2023-05-10T08:29:57;21.13;;;6.78;;
30036;SDS011;36325;51.512;-0.382;2023-05-10T08:32:27;22.27;;;7.32;;
30036;SDS011;36325;51.512;-0.382;2023-05-10T08:34:54;20.65;;;6.85;;
30036;SDS011;36325;51.512;-0.382;2023-05-10T08:37:23;23.15;;;6.97;;
30036;SDS011;36325;51.512;-0.382;2023-05-10T08:39:50;18.58;;;7.25;;
30036;SDS011;36325;51.512;-0.382;2023-05-10T08:42:19;19.45;;;7.35;;
30036;SDS011;36325;51.512;-0.382;2023-05-10T08:44:48;25.20;;;7.50;;
30036;SDS011;36325;51.512;-0.382;2023-05-10T08:47:16;23.15;;;7.93;;
30036;SDS011;36325;51.512;-0.382;2023-05-10T08:49:45;26.77;;;8.02;;
30036;SDS011;36325;51.512;-0.382;2023-05-10T08:52:17;19.33;;;7.30;;
30036;SDS011;36325;51.512;-0.382;2023-05-10T08:54:46;18.08;;;7.40;;
30036;SDS011;36325;51.512;-0.382;2023-05-10T08:57:14;15.35;;;7.30;;
30036;SDS011;36325;51.512;-0.382;2023-05-10T08:59:41;17.08;;;8.25;;
30036;SDS011;36325;51.512;-0.382;2023-05-10T09:02:09;23.17;;;8.30;;
30036;SDS011;36325;51.512;-0.382;2023-05-10T09:04:38;15.65;;;7.00;;
30036;SDS011;36325;51.512;-0.382;2023-05-10T09:07:06;20.48;;;9.30;;
30036;SDS011;36325;51.512;-0.382;2023-05-10T09:09:33;20.42;;;7.22;;
30036;SDS011;36325;51.512;-0.382;2023-05-10T09:12:02;14.07;;;6.88;;
30036;SDS011;36325;51.512;-0.382;2023-05-10T09:14:29;19.33;;;7.15;;
30036;SDS011;36325;51.512;-0.382;2023-05-10T09:17:01;17.63;;;6.38;;
30036;SDS011;36325;51.512;-0.382;2023-05-10T09:19:29;16.45;;;6.20;;
30036;SDS011;36325;51.512;-0.382;2023-05-10T09:21:56;15.32;;;6.32;;
30036;SDS011;36325;51.512;-0.382;2023-05-10T09:24:26;22.25;;;6.85;;
30036;SDS011;36325;51.512;-0.382;2023-05-10T09:26:56;23.55;;;7.88;;
30036;SDS011;36325;51.512;-0.382;2023-05-10T09:29:38;13.25;;;6.05;;
30036;SDS011;36325;51.512;-0.382;2023-05-10T09:32:09;16.52;;;7.13;;
30036;SDS011;36325;51.512;-0.382;2023-05-10T09:34:36;19.95;;;6.97;;
30036;SDS011;36325;51.512;-0.382;2023-05-10T09:37:06;13.30;;;6.72;;
30036;SDS011;36325;51.512;-0.382;2023-05-10T09:39:35;21.80;;;6.47;;
30036;SDS011;36325;51.512;-0.382;2023-05-10T09:42:04;11.52;;;6.47;;
30036;SDS011;36325;51.512;-0.382;2023-05-10T09:44:32;13.82;;;6.22;;
30036;SDS011;36325;51.512;-0.382;2023-05-10T09:47:01;13.98;;;5.78;;
30036;SDS011;36325;51.512;-0.382;2023-05-10T09:49:28;12.35;;;5.05;;
30036;SDS011;36325;51.512;-0.382;2023-05-10T09:52:00;14.38;;;6.20;;
30036;SDS011;36325;51.512;-0.382;2023-05-10T09:54:32;20.30;;;6.78;;
30036;SDS011;36325;51.512;-0.382;2023-05-10T09:57:00;16.40;;;6.22;;
30036;SDS011;36325;51.512;-0.382;2023-05-10T09:59:27;18.27;;;5.80;;
30036;SDS011;36325;51.512;-0.382;2023-05-10T10:01:56;15.15;;;5.82;;
30036;SDS011;36325;51.512;-0.382;2023-05-10T10:04:25;13.20;;;5.65;;
30036;SDS011;36325;51.512;-0.382;2023-05-10T10:06:59;13.98;;;5.88;;
30036;SDS011;36325;51.512;-0.382;2023-05-10T10:09:31;13.18;;;5.20;;
30036;SDS011;36325;51.512;-0.382;2023-05-10T10:11:59;12.00;;;4.30;;
30036;SDS011;36325;51.512;-0.382;2023-05-10T10:14:28;11.27;;;4.55;;
30036;SDS011;36325;51.512;-0.382;2023-05-10T10:16:56;11.40;;;4.50;;
30036;SDS011;36325;51.512;-0.382;2023-05-10T10:19:36;6.88;;;3.88;;
30036;SDS011;36325;51.512;-0.382;2023-05-10T10:22:04;10.95;;;3.30;;
30036;SDS011;36325;51.512;-0.382;2023-05-10T10:24:32;10.60;;;3.67;;
30036;SDS011;36325;51.512;-0.382;2023-05-10T10:27:05;11.82;;;4.15;;
30036;SDS011;36325;51.512;-0.382;2023-05-10T10:35:45;9.13;;;3.15;;
30036;SDS011;36325;51.512;-0.382;2023-05-10T10:38:13;25.50;;;3.67;;
30036;SDS011;36325;51.512;-0.382;2023-05-10T10:40:40;12.10;;;3.63;;
30036;SDS011;36325;51.512;-0.382;2023-05-10T10:43:25;9.85;;;3.03;;
30036;SDS011;36325;51.512;-0.382;2023-05-10T10:48:48;3.65;;;2.40;;
30036;SDS011;36325;51.512;-0.382;2023-05-10T10:51:37;7.68;;;2.00;;
30036;SDS011;36325;51.512;-0.382;2023-05-10T10:54:09;4.82;;;2.55;;
30036;SDS011;36325;51.512;-0.382;2023-05-10T10:56:37;8.93;;;3.40;;
30036;SDS011;36325;51.512;-0.382;2023-05-10T10:59:05;11.10;;;3.92;;
30036;SDS011;36325;51.512;-0.382;2023-05-10T11:01:32;11.50;;;4.32;;
30036;SDS011;36325;51.512;-0.382;2023-05-10T11:06:31;7.57;;;2.88;;
30036;SDS011;36325;51.512;-0.382;2023-05-10T11:09:06;6.10;;;2.55;;
30036;SDS011;36325;51.512;-0.382;2023-05-10T11:11:35;4.43;;;2.50;;
30036;SDS011;36325;51.512;-0.382;2023-05-10T11:14:04;7.00;;;2.75;;
30036;SDS011;36325;51.512;-0.382;2023-05-10T11:16:42;8.63;;;2.78;;
30036;SDS011;36325;51.512;-0.382;2023-05-10T11:19:11;9.90;;;3.35;;
30036;SDS011;36325;51.512;-0.382;2023-05-10T11:21:45;7.85;;;3.15;;
30036;SDS011;36325;51.512;-0.382;2023-05-10T11:24:20;9.55;;;3.00;;
30036;SDS011;36325;51.512;-0.382;2023-05-10T11:26:49;16.40;;;3.08;;
30036;SDS011;36325;51.512;-0.382;2023-05-10T11:29:20;10.40;;;2.93;;
30036;SDS011;36325;51.512;-0.382;2023-05-10T11:31:48;13.13;;;3.92;;
30036;SDS011;36325;51.512;-0.382;2023-05-10T11:34:23;11.48;;;3.60;;
30036;SDS011;36325;51.512;-0.382;2023-05-10T11:36:57;8.70;;;2.88;;
30036;SDS011;36325;51.512;-0.382;2023-05-10T11:39:25;12.00;;;2.75;;
30036;SDS011;36325;51.512;-0.382;2023-05-10T11:41:54;10.85;;;3.67;;
30036;SDS011;36325;51.512;-0.382;2023-05-10T11:44:22;12.60;;;3.10;;
30036;SDS011;36325;51.512;-0.382;2023-05-10T11:46:49;7.53;;;2.15;;
30036;SDS011;36325;51.512;-0.382;2023-05-10T11:49:17;7.68;;;2.13;;
30036;SDS011;36325;51.512;-0.382;2023-05-10T11:51:44;4.75;;;1.90;;
30036;SDS011;36325;51.512;-0.382;2023-05-10T11:54:13;7.15;;;1.95;;
30036;SDS011;36325;51.512;-0.382;2023-05-10T11:56:40;4.07;;;2.47;;
30036;SDS011;36325;51.512;-0.382;2023-05-10T11:59:08;9.60;;;3.42;;
30036;SDS011;36325;51.512;-0.382;2023-05-10T12:01:35;8.32;;;3.08;;
30036;SDS011;36325;51.512;-0.382;2023-05-10T12:04:03;8.30;;;2.30;;
30036;SDS011;36325;51.512;-0.382;2023-05-10T12:06:32;6.35;;;2.30;;
30036;SDS011;36325;51.512;-0.382;2023-05-10T12:09:07;7.85;;;2.13;;
30036;SDS011;36325;51.512;-0.382;2023-05-10T12:11:38;7.53;;;1.90;;
30036;SDS011;36325;51.512;-0.382;2023-05-10T12:14:09;9.18;;;2.72;;
30036;SDS011;36325;51.512;-0.382;2023-05-10T12:16:37;11.35;;;3.60;;
30036;SDS011;36325;51.512;-0.382;2023-05-10T12:19:04;14.75;;;4.20;;
30036;SDS011;36325;51.512;-0.382;2023-05-10T12:21:32;13.00;;;4.43;;
30036;SDS011;36325;51.512;-0.382;2023-05-10T12:24:01;16.02;;;4.07;;
30036;SDS011;36325;51.512;-0.382;2023-05-10T12:26:29;10.98;;;4.00;;
30036;SDS011;36325;51.512;-0.382;2023-05-10T12:29:12;14.25;;;4.75;;
30036;SDS011;36325;51.512;-0.382;2023-05-10T12:31:53;11.20;;;4.03;;
30036;SDS011;36325;51.512;-0.382;2023-05-10T12:34:31;14.88;;;4.18;;
30036;SDS011;36325;51.512;-0.382;2023-05-10T12:37:00;9.60;;;4.00;;
30036;SDS011;36325;51.512;-0.382;2023-05-10T12:39:41;14.85;;;3.97;;
30036;SDS011;36325;51.512;-0.382;2023-05-10T12:42:11;17.25;;;3.47;;
30036;SDS011;36325;51.512;-0.382;2023-05-10T12:44:39;9.18;;;3.15;;
30036;SDS011;36325;51.512;-0.382;2023-05-10T12:47:06;12.52;;;2.80;;
30036;SDS011;36325;51.512;-0.382;2023-05-10T12:49:34;9.68;;;3.70;;
30036;SDS011;36325;51.512;-0.382;2023-05-10T12:52:01;11.40;;;3.22;;
30036;SDS011;36325;51.512;-0.382;2023-05-10T12:54:28;6.80;;;3.05;;
30036;SDS011;36325;51.512;-0.382;2023-05-10T12:56:55;12.55;;;3.25;;
30036;SDS011;36325;51.512;-0.382;2023-05-10T12:59:23;10.45;;;2.92;;
30036;SDS011;36325;51.512;-0.382;2023-05-10T13:01:50;11.02;;;3.33;;
30036;SDS011;36325;51.512;-0.382;2023-05-10T13:04:18;7.60;;;2.95;;
30036;SDS011;36325;51.512;-0.382;2023-05-10T13:06:45;8.95;;;2.95;;
30036;SDS011;36325;51.512;-0.382;2023-05-10T13:09:12;7.05;;;3.10;;
30036;SDS011;36325;51.512;-0.382;2023-05-10T13:11:39;6.85;;;2.47;;
30036;SDS011;36325;51.512;-0.382;2023-05-10T13:14:07;11.07;;;2.97;;
30036;SDS011;36325;51.512;-0.382;2023-05-10T13:16:34;5.60;;;2.17;;
30036;SDS011;36325;51.512;-0.382;2023-05-10T13:19:02;6.35;;;2.17;;
30036;SDS011;36325;51.512;-0.382;2023-05-10T13:21:29;9.73;;;2.95;;
30036;SDS011;36325;51.512;-0.382;2023-05-10T13:23:56;4.28;;;2.45;;
30036;SDS011;36325;51.512;-0.382;2023-05-10T13:26:24;21.92;;;3.05;;
30036;SDS011;36325;51.512;-0.382;2023-05-10T13:28:53;23.80;;;4.35;;
30036;SDS011;36325;51.512;-0.382;2023-05-10T13:31:22;12.57;;;2.50;;
30036;SDS011;36325;51.512;-0.382;2023-05-10T13:33:49;7.78;;;2.33;;
30036;SDS011;36325;51.512;-0.382;2023-05-10T13:36:16;9.25;;;2.40;;
30036;SDS011;36325;51.512;-0.382;2023-05-10T13:38:43;8.05;;;2.33;;
30036;SDS011;36325;51.512;-0.382;2023-05-10T13:41:10;26.20;;;3.10;;
30036;SDS011;36325;51.512;-0.382;2023-05-10T13:43:37;6.53;;;2.00;;
30036;SDS011;36325;51.512;-0.382;2023-05-10T13:46:04;6.15;;;1.63;;
30036;SDS011;36325;51.512;-0.382;2023-05-10T13:48:32;2.33;;;1.13;;
30036;SDS011;36325;51.512;-0.382;2023-05-10T13:50:59;6.97;;;1.60;;
30036;SDS011;36325;51.512;-0.382;2023-05-10T13:53:26;4.93;;;1.73;;
30036;SDS011;36325;51.512;-0.382;2023-05-10T13:55:53;4.75;;;1.38;;
30036;SDS011;36325;51.512;-0.382;2023-05-10T13:58:20;3.22;;;1.17;;
30036;SDS011;36325;51.512;-0.382;2023-05-10T14:00:47;6.22;;;1.75;;
30036;SDS011;36325;51.512;-0.382;2023-05-10T14:03:15;2.22;;;1.63;;
30036;SDS011;36325;51.512;-0.382;2023-05-10T14:05:43;5.90;;;1.85;;
30036;SDS011;36325;51.512;-0.382;2023-05-10T14:08:11;8.50;;;1.88;;
30036;SDS011;36325;51.512;-0.382;2023-05-10T14:10:39;5.03;;;1.92;;
30036;SDS011;36325;51.512;-0.382;2023-05-10T14:13:06;12.55;;;2.05;;
30036;SDS011;36325;51.512;-0.382;2023-05-10T14:15:34;8.93;;;2.65;;
30036;SDS011;36325;51.512;-0.382;2023-05-10T14:18:01;6.35;;;2.58;;
30036;SDS011;36325;51.512;-0.382;2023-05-10T14:20:29;4.75;;;2.38;;
30036;SDS011;36325;51.512;-0.382;2023-05-10T14:22:56;6.65;;;2.88;;
30036;SDS011;36325;51.512;-0.382;2023-05-10T14:25:23;6.35;;;2.70;;
30036;SDS011;36325;51.512;-0.382;2023-05-10T14:27:51;6.55;;;2.40;;
30036;SDS011;36325;51.512;-0.382;2023-05-10T14:30:21;11.80;;;2.60;;
30036;SDS011;36325;51.512;-0.382;2023-05-10T14:32:48;12.15;;;3.22;;
30036;SDS011;36325;51.512;-0.382;2023-05-10T14:35:15;6.53;;;2.47;;
30036;SDS011;36325;51.512;-0.382;2023-05-10T14:37:44;8.02;;;3.10;;
30036;SDS011;36325;51.512;-0.382;2023-05-10T14:40:12;9.27;;;3.00;;
30036;SDS011;36325;51.512;-0.382;2023-05-10T14:42:41;5.95;;;2.25;;
30036;SDS011;36325;51.512;-0.382;2023-05-10T14:45:09;4.97;;;2.03;;
30036;SDS011;36325;51.512;-0.382;2023-05-10T14:47:38;7.25;;;2.13;;
30036;SDS011;36325;51.512;-0.382;2023-05-10T14:50:06;9.32;;;2.17;;
30036;SDS011;36325;51.512;-0.382;2023-05-10T14:52:34;7.53;;;1.90;;
30036;SDS011;36325;51.512;-0.382;2023-05-10T14:55:01;7.50;;;2.22;;
30036;SDS011;36325;51.512;-0.382;2023-05-10T14:57:28;3.00;;;1.85;;
30036;SDS011;36325;51.512;-0.382;2023-05-10T14:59:57;3.65;;;1.63;;
30036;SDS011;36325;51.512;-0.382;2023-05-10T15:02:24;4.70;;;1.23;;
30036;SDS011;36325;51.512;-0.382;2023-05-10T15:04:51;5.57;;;2.05;;